Time;durP1;ratioP1;P1;durP2;ratioP2;P2;SDS_P1;SDS_P2;PMS_P1;PMS_P2;Temp;Humidity;BMP_temperature;BMP_pressure;BME280_temperature;BME280_humidity;BME280_pressure;Samples;Min_cycle;Max_cycle;Signal;HPM_P1;HPM_P2
2023/03/26 00:01:16;;;;;;;15.63;2.85;;;7.10;99.90;;;;;;4993972;28;20053;-69
2023/03/26 00:03:45;;;;;;;12.93;2.83;;;7.00;99.90;;;;;;4976231;28;20042;-69
2023/03/26 00:06:16;;;;;;;15.20;2.67;;;7.00;99.90;;;;;;4976055;28;20046;-69
2023/03/26 00:08:44;;;;;;;12.27;2.28;;;7.00;99.90;;;;;;4992853;28;20053;-69
2023/03/26 00:11:14;;;;;;;19.88;2.70;;;7.20;99.90;;;;;;4974368;28;20050;-69
2023/03/26 00:13:42;;;;;;;13.93;2.83;;;7.00;99.90;;;;;;4990394;28;20042;-69
2023/03/26 00:16:12;;;;;;;16.35;2.30;;;7.10;99.90;;;;;;4974636;28;20038;-69
2023/03/26 00:18:41;;;;;;;12.55;2.40;;;7.10;99.90;;;;;;4974139;28;20045;-68
2023/03/26 00:21:09;;;;;;;18.15;2.22;;;7.10;99.90;;;;;;4973475;28;20700;-69
2023/03/26 00:23:35;;;;;;;10.57;2.17;;;7.10;99.90;;;;;;4974422;28;20073;-69
2023/03/26 00:26:01;;;;;;;;;;;7.10;99.90;;;;;;4992152;28;20490;-68
2023/03/26 00:28:28;;;;;;;12.00;2.10;;;7.10;99.90;;;;;;4965137;28;19929;-69
2023/03/26 00:31:04;;;;;;;16.05;2.60;;;7.10;99.90;;;;;;4973462;28;20057;-70
2023/03/26 00:33:37;;;;;;;10.23;2.23;;;7.10;99.90;;;;;;4985716;28;20046;-68
2023/03/26 00:36:05;;;;;;;13.77;2.20;;;7.10;99.90;;;;;;4975221;28;20057;-68
2023/03/26 00:38:32;;;;;;;15.30;3.28;;;7.10;99.90;;;;;;4990295;28;20030;-68
2023/03/26 00:41:04;;;;;;;15.27;2.78;;;7.00;99.90;;;;;;4974700;28;20042;-69
2023/03/26 00:43:31;;;;;;;16.17;2.53;;;7.00;99.90;;;;;;4986524;28;20097;-69
2023/03/26 00:45:58;;;;;;;18.35;2.30;;;7.00;99.90;;;;;;4973459;28;20056;-69
2023/03/26 00:48:26;;;;;;;11.63;2.13;;;7.00;99.90;;;;;;4984637;28;20490;-69
2023/03/26 00:50:52;;;;;;;15.23;2.50;;;7.00;99.90;;;;;;4974397;28;20034;-69
2023/03/26 00:53:18;;;;;;;;;;;7.00;99.90;;;;;;4987859;28;20509;-69
2023/03/26 00:55:45;;;;;;;13.98;2.40;;;7.20;99.90;;;;;;4985893;28;20409;-69
2023/03/26 00:58:12;;;;;;;15.10;3.20;;;7.00;99.90;;;;;;4975590;28;20065;-68
2023/03/26 01:00:56;;;;;;;16.27;2.60;;;7.00;99.90;;;;;;4977874;28;20043;-69
2023/03/26 01:03:23;;;;;;;11.90;2.33;;;7.00;99.90;;;;;;4971841;28;20067;-69
2023/03/26 01:06:03;;;;;;;21.35;3.42;;;7.00;99.90;;;;;;4975565;28;20061;-69
2023/03/26 01:08:43;;;;;;;15.43;3.25;;;6.90;99.90;;;;;;4993044;28;20105;-69
2023/03/26 01:11:23;;;;;;;12.13;2.38;;;6.90;99.90;;;;;;4992674;28;20103;-69
2023/03/26 01:13:51;;;;;;;12.10;2.60;;;6.90;99.90;;;;;;4974174;28;20051;-69
2023/03/26 01:16:40;;;;;;;12.45;2.72;;;6.90;99.90;;;;;;4955559;28;20051;-70
2023/03/26 01:19:32;;;;;;;17.38;3.40;;;6.80;99.90;;;;;;4963287;28;20047;-70
2023/03/26 01:21:59;;;;;;;14.13;2.80;;;6.80;99.90;;;;;;4984305;28;20078;-70
2023/03/26 01:24:25;;;;;;;13.43;2.15;;;6.90;99.90;;;;;;4990966;28;20057;-70
2023/03/26 01:26:54;;;;;;;12.52;2.35;;;7.40;99.90;;;;;;4991677;28;20092;-69
2023/03/26 01:29:51;;;;;;;15.88;2.50;;;6.90;99.90;;;;;;4993102;28;20057;-68
2023/03/26 01:32:47;;;;;;;14.43;2.70;;;6.80;99.90;;;;;;4991854;28;20497;-70
2023/03/26 01:35:31;;;;;;;14.60;2.67;;;6.80;99.90;;;;;;4993307;28;20042;-69
2023/03/26 01:38:21;;;;;;;19.77;2.95;;;6.80;99.90;;;;;;4991373;28;20042;-69
2023/03/26 01:41:08;;;;;;;16.40;2.83;;;6.90;99.90;;;;;;4992680;28;20050;-69
2023/03/26 01:43:46;;;;;;;13.02;2.40;;;6.80;99.90;;;;;;4967884;28;20055;-69
2023/03/26 01:46:14;;;;;;;15.88;2.70;;;6.80;99.90;;;;;;4974686;28;20061;-69
2023/03/26 01:48:42;;;;;;;10.60;2.67;;;6.90;99.90;;;;;;4975436;28;20058;-69
2023/03/26 01:51:10;;;;;;;14.57;2.40;;;6.90;99.90;;;;;;4975353;28;20053;-69
2023/03/26 01:53:42;;;;;;;20.92;3.10;;;7.00;99.90;;;;;;4991776;28;20069;-69
2023/03/26 01:56:21;;;;;;;13.48;2.83;;;6.90;99.90;;;;;;4992886;28;20042;-69
2023/03/26 01:59:12;;;;;;;17.10;2.22;;;6.90;99.90;;;;;;4992436;28;20054;-68
2023/03/26 02:01:54;;;;;;;13.82;2.45;;;7.00;99.90;;;;;;4991076;28;20131;-69
2023/03/26 02:04:52;;;;;;;18.23;2.75;;;7.00;99.90;;;;;;4992701;28;20042;-69
2023/03/26 02:07:36;;;;;;;14.77;2.47;;;7.00;99.90;;;;;;4986281;28;20085;-69
2023/03/26 02:10:18;;;;;;;12.40;2.42;;;7.00;99.90;;;;;;4976260;28;20038;-69
2023/03/26 02:12:44;;;;;;;17.75;2.55;;;7.10;99.90;;;;;;4977704;28;20089;-69
2023/03/26 02:15:10;;;;;;;;;;;7.10;99.90;;;;;;4995681;28;20069;-69
2023/03/26 02:17:39;;;;;;;12.20;2.03;;;6.90;99.90;;;;;;4995883;28;20004;-69
2023/03/26 02:20:10;;;;;;;9.40;2.05;;;6.90;99.90;;;;;;4995493;28;20043;-69
2023/03/26 02:22:40;;;;;;;10.55;1.90;;;6.70;99.90;;;;;;4994391;28;20437;-69
2023/03/26 02:25:08;;;;;;;9.02;2.10;;;6.60;99.90;;;;;;4994955;28;20113;-69
2023/03/26 02:27:35;;;;;;;10.75;1.73;;;6.50;99.90;;;;;;4993516;28;20064;-69
2023/03/26 02:30:01;;;;;;;10.65;2.05;;;6.50;99.90;;;;;;4995618;28;20117;-68
2023/03/26 02:32:26;;;;;;;;;;;6.40;99.90;;;;;;4993453;28;20133;-68
2023/03/26 02:34:52;;;;;;;11.65;1.98;;;6.30;99.90;;;;;;4993707;28;19921;-69
2023/03/26 02:37:18;;;;;;;;;;;6.30;99.90;;;;;;4994245;28;20137;-69
2023/03/26 02:39:44;;;;;;;13.27;2.28;;;6.20;99.90;;;;;;4994450;28;19968;-68
2023/03/26 02:42:10;;;;;;;14.18;2.13;;;6.10;99.90;;;;;;4993528;28;20065;-68
2023/03/26 02:44:37;;;;;;;;;;;6.10;99.90;;;;;;4995487;28;20482;-68
2023/03/26 02:47:03;;;;;;;9.48;2.28;;;6.00;99.90;;;;;;4995728;28;19921;-69
2023/03/26 02:49:28;;;;;;;;;;;5.90;99.90;;;;;;4994048;28;20060;-69
2023/03/26 02:51:55;;;;;;;9.75;1.70;;;5.80;99.90;;;;;;4994915;28;19926;-69
2023/03/26 02:54:21;;;;;;;10.27;2.00;;;5.70;99.90;;;;;;4994997;28;20050;-69
2023/03/26 02:56:47;;;;;;;8.93;1.70;;;5.80;99.90;;;;;;4993861;28;20050;-68
2023/03/26 02:59:13;;;;;;;;;;;5.60;99.90;;;;;;4994459;28;20050;-69
2023/03/26 03:01:41;;;;;;;11.48;1.73;;;5.50;99.90;;;;;;4994589;28;19933;-69
2023/03/26 03:04:09;;;;;;;10.50;1.75;;;5.50;99.90;;;;;;4995353;28;20050;-68
2023/03/26 03:06:37;;;;;;;8.13;1.65;;;5.50;99.90;;;;;;4994166;28;20054;-68
2023/03/26 03:09:10;;;;;;;12.13;2.47;;;5.40;99.90;;;;;;4994276;28;20474;-69
2023/03/26 03:11:37;;;;;;;9.05;1.75;;;5.40;99.90;;;;;;4995292;28;20114;-68
2023/03/26 03:14:03;;;;;;;14.75;2.03;;;5.40;99.90;;;;;;4993882;28;20054;-68
2023/03/26 03:16:32;;;;;;;11.65;2.17;;;5.40;99.90;;;;;;4993200;28;20525;-69
2023/03/26 03:18:58;;;;;;;6.63;1.60;;;5.40;99.90;;;;;;4994838;28;20061;-69
2023/03/26 03:21:27;;;;;;;;;;;5.40;99.90;;;;;;4994768;28;20042;-68
2023/03/26 03:23:56;;;;;;;9.35;1.98;;;5.50;99.90;;;;;;4993329;28;20028;-69
2023/03/26 03:26:28;;;;;;;10.48;2.00;;;6.00;99.90;;;;;;4977007;28;20145;-69
2023/03/26 03:28:57;;;;;;;9.65;1.77;;;5.50;99.90;;;;;;4994786;28;20057;-69
2023/03/26 03:31:24;;;;;;;12.93;2.15;;;5.60;99.90;;;;;;4993867;28;20043;-69
2023/03/26 03:33:50;;;;;;;7.38;2.25;;;5.60;99.90;;;;;;4993582;28;20121;-69
2023/03/26 03:36:20;;;;;;;6.68;1.70;;;6.30;99.90;;;;;;4994953;28;20042;-69
2023/03/26 03:38:47;;;;;;;14.65;2.28;;;5.70;99.90;;;;;;4992107;28;20050;-68
2023/03/26 03:41:13;;;;;;;10.02;1.70;;;5.60;99.90;;;;;;4993296;28;20046;-68
2023/03/26 03:43:38;;;;;;;;;;;5.70;99.90;;;;;;4993471;28;20042;-69
2023/03/26 03:46:04;;;;;;;7.90;1.75;;;5.80;99.90;;;;;;4992986;28;19917;-69
2023/03/26 03:48:30;;;;;;;;;;;5.70;99.90;;;;;;4994422;28;20046;-69
2023/03/26 03:50:56;;;;;;;18.10;1.98;;;5.60;99.90;;;;;;4987500;28;19922;-69
2023/03/26 03:53:24;;;;;;;;;;;5.60;99.90;;;;;;4994759;28;20043;-69
2023/03/26 03:55:52;;;;;;;10.68;1.92;;;5.60;99.90;;;;;;4977179;28;19926;-69
2023/03/26 03:58:20;;;;;;;10.90;2.17;;;6.30;99.90;;;;;;4993452;28;20038;-69
2023/03/26 04:00:51;;;;;;;13.43;2.10;;;5.60;99.90;;;;;;4976653;28;20043;-69
2023/03/26 04:03:17;;;;;;;11.30;2.13;;;5.60;99.90;;;;;;4977088;28;20042;-68
2023/03/26 04:05:53;;;;;;;16.35;2.63;;;5.70;99.90;;;;;;4975971;28;20493;-69
2023/03/26 04:08:23;;;;;;;15.35;2.35;;;5.60;99.90;;;;;;4976332;28;20472;-69
2023/03/26 04:10:49;;;;;;;11.07;2.35;;;5.60;99.90;;;;;;4976501;28;20125;-69
2023/03/26 04:13:16;;;;;;;15.88;2.50;;;5.60;99.90;;;;;;4975774;28;20054;-69
2023/03/26 04:15:43;;;;;;;12.63;2.47;;;5.60;99.90;;;;;;4993721;28;20522;-69
2023/03/26 04:18:09;;;;;;;10.82;2.10;;;5.80;99.90;;;;;;4976483;28;20046;-69
2023/03/26 04:20:40;;;;;;;8.63;2.33;;;5.50;99.90;;;;;;4992610;28;20042;-69
2023/03/26 04:23:07;;;;;;;13.68;2.20;;;5.60;99.90;;;;;;4993947;28;20046;-69
2023/03/26 04:25:35;;;;;;;11.43;2.15;;;5.60;99.90;;;;;;4975605;28;20050;-69
2023/03/26 04:28:05;;;;;;;9.18;1.90;;;5.60;99.90;;;;;;4975332;28;20078;-68
2023/03/26 04:30:32;;;;;;;10.90;2.00;;;5.50;99.90;;;;;;4993664;28;20042;-69
2023/03/26 04:33:05;;;;;;;9.70;2.10;;;5.50;99.90;;;;;;4992103;28;20054;-69
2023/03/26 04:35:34;;;;;;;15.27;2.25;;;5.50;99.90;;;;;;4975978;28;20073;-68
2023/03/26 04:38:05;;;;;;;13.45;1.92;;;5.50;99.90;;;;;;4976262;28;20061;-69
2023/03/26 04:40:33;;;;;;;15.40;2.47;;;6.00;99.90;;;;;;4992513;28;20038;-69
2023/03/26 04:43:01;;;;;;;11.20;2.15;;;5.60;99.90;;;;;;4993478;28;20498;-69
2023/03/26 04:45:29;;;;;;;13.35;2.08;;;5.50;99.90;;;;;;4975790;28;20070;-69
2023/03/26 04:47:57;;;;;;;10.93;1.90;;;5.50;99.90;;;;;;4992759;28;20113;-69
2023/03/26 04:50:25;;;;;;;13.35;2.30;;;5.50;99.90;;;;;;4993417;28;20050;-69
2023/03/26 04:52:53;;;;;;;9.68;2.50;;;5.50;99.90;;;;;;4976198;28;20053;-69
2023/03/26 04:55:35;;;;;;;7.10;1.83;;;5.50;99.90;;;;;;4992415;28;20054;-69
2023/03/26 04:58:04;;;;;;;12.10;2.17;;;5.50;99.90;;;;;;4992103;28;20050;-69
2023/03/26 05:00:30;;;;;;;15.02;2.38;;;5.40;99.90;;;;;;4974959;28;20050;-69
2023/03/26 05:02:58;;;;;;;10.00;2.90;;;5.40;99.90;;;;;;4992708;28;20042;-69
2023/03/26 05:05:25;;;;;;;13.30;2.35;;;5.40;99.90;;;;;;4993087;28;20046;-69
2023/03/26 05:07:51;;;;;;;12.57;2.30;;;5.40;99.90;;;;;;4993604;28;20394;-69
2023/03/26 05:10:19;;;;;;;;;;;5.40;99.90;;;;;;4993175;28;20046;-69
2023/03/26 05:12:47;;;;;;;10.55;2.40;;;5.30;99.90;;;;;;4991806;28;19924;-69
2023/03/26 05:15:14;;;;;;;15.45;1.92;;;5.30;99.90;;;;;;4975984;28;20430;-70
2023/03/26 05:17:43;;;;;;;14.38;2.50;;;5.30;99.90;;;;;;4975839;28;20109;-69
2023/03/26 05:20:21;;;;;;;9.98;1.95;;;5.30;99.90;;;;;;4975468;28;20622;-69
2023/03/26 05:22:48;;;;;;;10.90;1.70;;;5.30;99.90;;;;;;4975052;28;20050;-69
2023/03/26 05:25:15;;;;;;;13.18;2.55;;;5.30;99.90;;;;;;4992883;28;20053;-69
2023/03/26 05:27:41;;;;;;;10.40;2.00;;;5.30;99.90;;;;;;4992077;28;20058;-69
2023/03/26 05:30:07;;;;;;;;;;;5.30;99.90;;;;;;4993003;28;20050;-68
2023/03/26 05:32:33;;;;;;;11.40;2.10;;;5.30;99.90;;;;;;4974829;28;19918;-69
2023/03/26 05:35:02;;;;;;;11.00;2.75;;;5.30;99.90;;;;;;4975764;28;20129;-68
2023/03/26 05:37:29;;;;;;;15.23;2.70;;;5.30;99.90;;;;;;4974419;28;20046;-69
2023/03/26 05:39:56;;;;;;;10.60;1.98;;;5.30;99.90;;;;;;4993052;28;20046;-69
2023/03/26 05:42:22;;;;;;;12.90;2.17;;;5.40;99.90;;;;;;4990796;28;20407;-70
2023/03/26 05:44:48;;;;;;;;;;;5.40;99.90;;;;;;4992937;28;20034;-69
2023/03/26 05:47:14;;;;;;;10.95;2.58;;;5.40;99.90;;;;;;4995065;28;19988;-69
2023/03/26 05:49:40;;;;;;;14.55;2.45;;;5.40;99.90;;;;;;4996379;28;20077;-68
2023/03/26 05:52:05;;;;;;;;;;;5.40;99.90;;;;;;4995889;28;20082;-69
2023/03/26 05:54:31;;;;;;;10.13;2.08;;;5.40;99.90;;;;;;4994525;28;19928;-70
2023/03/26 05:56:57;;;;;;;;;;;5.40;99.90;;;;;;4987625;28;20046;-69
2023/03/26 05:59:22;;;;;;;6.18;2.25;;;5.40;99.90;;;;;;4984172;28;19922;-68
2023/03/26 06:01:53;;;;;;;10.73;1.90;;;5.40;99.90;;;;;;4978100;28;20475;-72
2023/03/26 06:04:22;;;;;;;8.63;1.63;;;5.50;99.90;;;;;;4977680;28;20100;-72
2023/03/26 06:06:51;;;;;;;13.20;2.28;;;5.50;99.90;;;;;;4976621;28;20046;-71
2023/03/26 06:09:17;;;;;;;15.15;2.17;;;5.50;99.90;;;;;;4978508;28;20054;-72
2023/03/26 06:11:43;;;;;;;;;;;5.50;99.90;;;;;;4977827;28;20663;-71
2023/03/26 06:14:11;;;;;;;8.75;2.08;;;5.60;99.90;;;;;;4978433;28;19921;-72
2023/03/26 06:16:36;;;;;;;11.43;2.72;;;5.60;99.90;;;;;;4977474;28;20081;-73
2023/03/26 06:19:02;;;;;;;;;;;5.60;99.90;;;;;;4995126;28;20085;-73
2023/03/26 06:21:28;;;;;;;12.73;3.85;;;5.70;99.90;;;;;;4990913;28;20377;-72
2023/03/26 06:23:54;;;;;;;11.05;2.10;;;5.70;99.90;;;;;;4994990;28;20039;-72
2023/03/26 06:26:21;;;;;;;16.10;3.50;;;6.00;99.90;;;;;;4976245;28;20494;-72
2023/03/26 06:28:46;;;;;;;11.98;2.10;;;5.80;99.90;;;;;;4995485;28;20046;-72
2023/03/26 06:31:12;;;;;;;;;;;5.90;99.90;;;;;;4978225;28;20042;-72
2023/03/26 06:33:38;;;;;;;12.27;3.08;;;6.70;99.90;;;;;;4965258;28;19975;-73
2023/03/26 06:36:04;;;;;;;;;;;5.90;99.90;;;;;;4994347;28;20050;-71
2023/03/26 06:38:29;;;;;;;7.72;1.88;;;6.00;99.90;;;;;;4978564;28;19922;-71
2023/03/26 06:41:00;;;;;;;;;;;6.00;99.90;;;;;;4994359;28;20495;-71
2023/03/26 06:43:26;;;;;;;11.73;1.80;;;6.10;99.90;;;;;;4976913;28;20028;-72
2023/03/26 06:45:52;;;;;;;;;;;6.10;99.90;;;;;;4977639;28;20161;-71
2023/03/26 06:48:17;;;;;;;10.02;2.13;;;6.20;99.90;;;;;;4976561;28;19922;-72
2023/03/26 06:50:43;;;;;;;;;;;6.60;99.90;;;;;;4975278;28;20050;-71
2023/03/26 06:53:10;;;;;;;8.77;1.90;;;6.30;99.90;;;;;;4991977;28;19932;-74
2023/03/26 06:55:35;;;;;;;10.95;2.30;;;6.40;99.90;;;;;;4984258;28;20506;-71
2023/03/26 06:58:04;;;;;;;;;;;6.40;99.90;;;;;;4977963;28;20050;-71
2023/03/26 07:00:30;;;;;;;11.57;2.13;;;6.90;99.90;;;;;;4977568;28;20301;-71
2023/03/26 07:02:55;;;;;;;;;;;6.50;99.90;;;;;;4977268;28;20050;-72
2023/03/26 07:05:21;;;;;;;14.48;3.60;;;6.60;99.90;;;;;;4994727;28;19922;-72
2023/03/26 07:07:47;;;;;;;;;;;6.50;99.90;;;;;;4994728;28;20034;-76
2023/03/26 07:10:13;;;;;;;9.52;2.33;;;6.50;99.90;;;;;;4990924;28;19928;-76
2023/03/26 07:12:40;;;;;;;14.57;2.33;;;6.60;99.90;;;;;;4994366;28;20556;-73
2023/03/26 07:15:06;;;;;;;8.20;1.85;;;6.60;99.90;;;;;;4976660;28;20073;-74
2023/03/26 07:17:38;;;;;;;16.40;2.45;;;6.70;99.90;;;;;;4976963;28;20039;-73
2023/03/26 07:20:06;;;;;;;12.35;2.40;;;6.70;99.90;;;;;;4977481;28;20081;-74
2023/03/26 07:22:35;;;;;;;12.43;2.20;;;6.80;99.90;;;;;;4993855;28;20557;-76
2023/03/26 07:25:01;;;;;;;11.05;2.22;;;6.80;99.90;;;;;;4978810;28;20053;-75
2023/03/26 07:27:34;;;;;;;;;;;6.90;99.90;;;;;;4976085;28;20046;-74
2023/03/26 07:30:12;;;;;;;11.50;1.92;;;7.10;99.90;;;;;;4983875;28;19933;-74
2023/03/26 07:32:57;;;;;;;11.63;2.30;;;7.40;99.90;;;;;;4994431;28;20057;-73
2023/03/26 07:35:47;;;;;;;7.75;2.22;;;7.80;99.90;;;;;;4974597;28;20113;-72
2023/03/26 07:38:19;;;;;;;11.95;1.83;;;8.60;99.90;;;;;;4943868;28;20054;-71
2023/03/26 07:40:53;;;;;;;14.82;2.22;;;8.20;99.90;;;;;;4973740;28;20082;-71
2023/03/26 07:44:16;;;;;;;15.10;2.08;;;8.40;99.90;;;;;;4956514;28;20077;-72
2023/03/26 07:46:42;;;;;;;14.20;2.25;;;8.30;99.90;;;;;;4893019;29;20051;-70
2023/03/26 07:49:11;;;;;;;;;;;8.20;99.90;;;;;;4914997;29;20048;-70
2023/03/26 07:51:37;;;;;;;12.32;1.92;;;8.30;99.90;;;;;;4945031;28;19972;-71
2023/03/26 07:54:07;;;;;;;10.75;2.03;;;8.20;99.90;;;;;;4992591;28;20042;-71
2023/03/26 07:56:51;;;;;;;11.70;2.00;;;8.20;99.90;;;;;;4991245;28;20050;-71
2023/03/26 07:59:41;;;;;;;13.10;1.70;;;8.30;99.90;;;;;;4990878;28;20034;-72
2023/03/26 08:02:26;;;;;;;13.82;2.45;;;8.30;99.90;;;;;;4985267;28;20054;-73
2023/03/26 08:05:39;;;;;;;14.10;2.28;;;8.40;99.90;;;;;;4992094;28;20544;-75
2023/03/26 08:08:18;;;;;;;9.65;1.98;;;8.50;99.90;;;;;;4987751;28;20046;-71
2023/03/26 08:11:04;;;;;;;8.70;1.67;;;8.80;99.90;;;;;;4976647;28;20042;-71
2023/03/26 08:13:57;;;;;;;13.15;2.72;;;9.00;99.90;;;;;;4969816;28;20125;-74
2023/03/26 08:16:30;;;;;;;5.47;1.80;;;8.90;99.90;;;;;;4984220;28;20050;-71
2023/03/26 08:19:33;;;;;;;13.60;2.30;;;9.00;99.90;;;;;;4989700;28;20043;-72
2023/03/26 08:22:16;;;;;;;12.23;1.70;;;8.90;99.90;;;;;;4993732;28;20050;-71
2023/03/26 08:25:16;;;;;;;13.70;2.30;;;8.90;99.90;;;;;;4973203;28;20414;-71
2023/03/26 08:27:54;;;;;;;6.60;1.90;;;8.90;99.90;;;;;;4973293;28;20058;-71
2023/03/26 08:30:22;;;;;;;7.65;1.40;;;9.00;99.90;;;;;;4986227;28;20062;-71
2023/03/26 08:33:17;;;;;;;7.15;1.55;;;9.00;99.90;;;;;;4952196;28;20043;-72
2023/03/26 08:35:44;;;;;;;9.98;1.73;;;9.00;99.90;;;;;;4976369;28;20487;-72
2023/03/26 08:38:12;;;;;;;10.60;1.88;;;9.00;99.90;;;;;;4994549;28;20061;-71
2023/03/26 08:41:15;;;;;;;12.50;2.28;;;9.00;99.90;;;;;;4980866;28;20065;-71
2023/03/26 08:43:44;;;;;;;8.77;2.20;;;9.00;99.90;;;;;;4960069;28;20506;-71
2023/03/26 08:46:27;;;;;;;10.70;1.50;;;9.00;99.90;;;;;;4972384;28;20046;-72
2023/03/26 08:49:17;;;;;;;9.52;1.80;;;9.00;99.90;;;;;;4987084;28;20039;-71
2023/03/26 08:52:05;;;;;;;11.63;1.73;;;9.10;99.90;;;;;;4973776;28;20039;-71
2023/03/26 08:55:15;;;;;;;7.90;1.60;;;9.20;99.90;;;;;;4965717;28;20086;-71
2023/03/26 08:57:53;;;;;;;6.78;1.70;;;9.30;99.90;;;;;;4967926;28;20034;-71
2023/03/26 09:00:50;;;;;;;9.20;1.80;;;9.40;99.90;;;;;;4962935;28;20510;-75
2023/03/26 09:03:43;;;;;;;11.00;2.00;;;9.50;99.90;;;;;;4966559;28;20062;-73
2023/03/26 09:06:45;;;;;;;8.38;1.77;;;9.70;99.90;;;;;;4975302;28;20042;-73
2023/03/26 09:09:32;;;;;;;12.38;2.08;;;9.90;99.90;;;;;;4991376;28;20046;-77
2023/03/26 09:12:10;;;;;;;8.23;1.70;;;9.90;99.90;;;;;;4975045;28;20509;-74
2023/03/26 09:15:12;;;;;;;9.18;1.77;;;9.90;99.90;;;;;;4991258;28;20490;-74
2023/03/26 09:17:56;;;;;;;17.90;2.45;;;9.80;99.90;;;;;;4983854;28;20117;-72
2023/03/26 09:20:34;;;;;;;10.50;2.25;;;10.00;99.90;;;;;;4993058;28;20499;-71
2023/03/26 09:23:25;;;;;;;14.68;2.20;;;9.80;99.90;;;;;;4975918;28;20484;-71
2023/03/26 09:27:06;;;;;;;8.32;1.42;;;9.80;99.90;;;;;;4995978;28;20486;-71
2023/03/26 09:29:40;;;;;;;10.00;1.77;;;9.80;99.90;;;;;;4898268;29;20048;-71
2023/03/26 09:32:23;;;;;;;9.18;1.67;;;9.70;99.90;;;;;;4912816;29;20049;-71
2023/03/26 09:34:57;;;;;;;8.73;1.88;;;9.70;99.90;;;;;;4954191;28;20046;-73
2023/03/26 09:37:42;;;;;;;9.82;1.70;;;9.80;99.90;;;;;;4987157;28;20070;-73
2023/03/26 09:40:23;;;;;;;9.20;1.88;;;9.90;99.90;;;;;;4992594;28;20125;-74
2023/03/26 09:43:13;;;;;;;9.23;1.90;;;9.80;99.90;;;;;;4987082;28;20053;-73
2023/03/26 09:45:38;;;;;;;10.60;1.70;;;9.70;99.90;;;;;;4986967;28;20046;-74
2023/03/26 09:48:37;;;;;;;13.73;2.67;;;9.70;99.90;;;;;;4999823;28;20050;-72
2023/03/26 09:51:50;;;;;;;9.57;1.88;;;9.70;99.90;;;;;;5164369;23;20096;-76
2023/03/26 09:54:43;;;;;;;12.20;2.00;;;9.50;99.90;;;;;;4985106;28;20089;-73
2023/03/26 09:57:20;;;;;;;12.13;2.28;;;9.60;99.90;;;;;;4993627;28;20459;-72
2023/03/26 09:59:58;;;;;;;10.63;2.28;;;9.60;99.90;;;;;;4997268;28;20561;-72
2023/03/26 10:02:26;;;;;;;7.22;2.13;;;9.40;99.90;;;;;;5024062;28;20045;-75
2023/03/26 10:04:58;;;;;;;7.75;2.10;;;9.70;99.90;;;;;;5011421;28;20038;-74
2023/03/26 10:07:29;;;;;;;8.35;1.45;;;9.70;99.90;;;;;;5022927;28;20117;-73
2023/03/26 10:10:21;;;;;;;9.52;2.25;;;9.80;99.90;;;;;;4997356;28;20061;-75
2023/03/26 10:13:12;;;;;;;6.78;1.80;;;9.90;99.90;;;;;;4997188;28;20103;-74
2023/03/26 10:15:46;;;;;;;8.75;2.30;;;10.00;99.90;;;;;;4997392;28;20057;-72
2023/03/26 10:18:50;;;;;;;9.75;1.85;;;10.10;99.90;;;;;;4998654;28;20064;-73
2023/03/26 10:21:25;;;;;;;7.20;1.63;;;10.30;99.90;;;;;;5001630;28;20049;-73
2023/03/26 10:24:19;;;;;;;9.00;1.55;;;10.50;99.90;;;;;;4997411;28;20101;-73
2023/03/26 10:27:20;;;;;;;19.17;2.05;;;10.40;99.90;;;;;;4997356;28;20042;-75
2023/03/26 10:30:10;;;;;;;9.48;2.20;;;10.40;99.90;;;;;;5014811;28;20046;-73
2023/03/26 10:32:36;;;;;;;10.00;1.98;;;10.40;99.90;;;;;;4999677;28;20049;-74
2023/03/26 10:35:39;;;;;;;9.18;1.38;;;10.40;99.90;;;;;;5001376;28;20175;-74
2023/03/26 10:38:57;;;;;;;7.22;1.55;;;10.40;99.90;;;;;;5001275;28;20092;-73
2023/03/26 10:41:37;;;;;;;8.65;1.77;;;10.40;99.90;;;;;;4970382;28;20045;-73
2023/03/26 10:44:15;;;;;;;6.00;1.80;;;10.60;99.90;;;;;;5008689;28;20061;-74
2023/03/26 10:47:23;;;;;;;10.13;1.92;;;10.90;99.90;;;;;;5031489;28;20049;-73
2023/03/26 10:50:14;;;;;;;;;;;11.20;99.90;;;;;;5014136;28;20037;-72
2023/03/26 10:53:01;;;;;;;15.15;3.40;;;11.40;99.90;;;;;;5034386;28;19932;-73
2023/03/26 10:55:44;;;;;;;8.70;2.40;;;11.50;99.90;;;;;;5003168;28;20084;-72
2023/03/26 10:58:30;;;;;;;14.43;2.17;;;11.80;99.90;;;;;;5015823;28;20092;-74
2023/03/26 11:01:02;;;;;;;17.20;3.08;;;12.00;99.70;;;;;;5014070;28;20088;-76
2023/03/26 11:03:45;;;;;;;11.73;2.17;;;12.00;99.20;;;;;;5021617;28;20085;-75
2023/03/26 11:06:37;;;;;;;11.48;2.70;;;12.10;99.30;;;;;;5037469;28;20044;-75
2023/03/26 11:09:27;;;;;;;7.68;1.70;;;12.60;99.30;;;;;;5011213;28;20050;-77
2023/03/26 11:12:12;;;;;;;5.85;1.83;;;12.60;98.00;;;;;;5032884;28;20038;-75
2023/03/26 11:14:52;;;;;;;10.32;2.00;;;12.40;97.50;;;;;;5038203;28;20106;-77
2023/03/26 11:17:56;;;;;;;7.00;1.73;;;12.00;98.70;;;;;;5015645;28;20128;-76
2023/03/26 11:20:52;;;;;;;9.52;2.13;;;11.60;99.00;;;;;;4965997;28;20464;-73
2023/03/26 11:23:34;;;;;;;13.40;1.90;;;11.20;99.90;;;;;;5015034;28;20065;-73
2023/03/26 11:26:58;;;;;;;7.95;1.45;;;10.80;99.90;;;;;;5046352;28;20503;-73
2023/03/26 11:29:45;;;;;;;9.30;1.85;;;10.70;99.90;;;;;;4926570;29;20066;-75
2023/03/26 11:32:19;;;;;;;7.53;1.65;;;10.70;99.90;;;;;;5016217;28;20136;-76
2023/03/26 11:35:14;;;;;;;8.60;1.75;;;11.30;99.90;;;;;;5015386;28;20038;-73
2023/03/26 11:37:51;;;;;;;8.90;1.92;;;12.20;99.90;;;;;;4973564;28;20061;-73
2023/03/26 11:40:26;;;;;;;12.00;2.20;;;12.60;99.60;;;;;;5033713;28;20045;-72
2023/03/26 11:42:57;;;;;;;11.10;2.57;;;12.60;96.90;;;;;;5014259;28;20057;-72
2023/03/26 11:45:28;;;;;;;8.60;1.70;;;12.60;98.50;;;;;;5032791;28;20393;-74
2023/03/26 11:48:19;;;;;;;7.63;2.55;;;12.30;98.30;;;;;;5015050;28;20073;-75
2023/03/26 11:50:54;;;;;;;13.13;2.33;;;11.90;98.70;;;;;;5020690;28;20489;-74
2023/03/26 11:53:26;;;;;;;6.97;2.08;;;11.60;97.40;;;;;;5015503;28;20076;-74
2023/03/26 11:56:17;;;;;;;10.27;2.25;;;11.60;98.70;;;;;;5025571;28;20502;-75
2023/03/26 11:58:54;;;;;;;8.20;1.85;;;11.50;97.90;;;;;;5017691;28;20123;-72
2023/03/26 12:04:11;;;;;;;7.10;1.85;;;11.30;98.10;;;;;;5005279;28;20481;-73
2023/03/26 12:06:56;;;;;;;12.05;1.95;;;11.30;98.50;;;;;;5001731;28;20092;-79
2023/03/26 12:09:23;;;;;;;9.23;1.92;;;11.40;97.80;;;;;;4986650;28;20098;-73
2023/03/26 12:11:55;;;;;;;7.80;1.98;;;11.40;98.20;;;;;;5001526;28;20053;-75
2023/03/26 12:14:25;;;;;;;8.70;1.50;;;11.30;97.40;;;;;;5003671;28;20109;-74
2023/03/26 12:17:14;;;;;;;5.93;1.63;;;11.20;98.00;;;;;;4998931;28;20054;-73
2023/03/26 12:19:44;;;;;;;4.82;1.27;;;11.40;98.30;;;;;;5003016;28;20041;-77
2023/03/26 12:22:36;;;;;;;6.20;1.35;;;11.30;97.60;;;;;;4985432;28;20105;-73
2023/03/26 12:25:35;;;;;;;10.02;1.70;;;11.10;97.20;;;;;;4982027;28;20050;-74
2023/03/26 12:28:03;;;;;;;11.80;2.40;;;10.80;97.50;;;;;;5002868;28;20069;-74
2023/03/26 12:30:38;;;;;;;8.23;2.70;;;10.70;97.80;;;;;;4994757;28;20129;-71
2023/03/26 12:33:18;;;;;;;14.27;2.50;;;10.60;97.50;;;;;;4985112;28;20090;-71
2023/03/26 12:35:44;;;;;;;13.20;2.45;;;10.80;97.30;;;;;;4984051;28;20489;-70
2023/03/26 12:38:14;;;;;;;10.45;2.38;;;11.30;97.90;;;;;;4964410;28;20048;-71
2023/03/26 12:40:41;;;;;;;8.00;1.92;;;11.40;97.70;;;;;;4988847;28;20060;-72
2023/03/26 12:43:24;;;;;;;7.35;1.83;;;11.80;98.10;;;;;;4988595;28;20061;-72
2023/03/26 12:45:54;;;;;;;11.50;1.80;;;12.10;97.40;;;;;;5002995;28;20045;-73
2023/03/26 12:48:24;;;;;;;8.55;1.63;;;11.70;96.20;;;;;;4991008;28;20050;-74
2023/03/26 12:51:23;;;;;;;6.20;1.42;;;11.40;96.90;;;;;;5010197;28;20041;-72
2023/03/26 12:54:04;;;;;;;9.82;2.08;;;11.00;96.70;;;;;;4983531;28;20061;-72
2023/03/26 12:56:51;;;;;;;10.13;1.77;;;10.70;98.10;;;;;;4995704;28;20513;-72
2023/03/26 12:59:23;;;;;;;10.95;1.70;;;10.60;98.60;;;;;;4986454;28;20050;-71
2023/03/26 13:02:00;;;;;;;10.68;1.73;;;10.40;98.90;;;;;;5001637;28;20050;-71
2023/03/26 13:04:56;;;;;;;9.45;1.77;;;10.10;99.80;;;;;;4981627;28;20093;-72
2023/03/26 13:07:33;;;;;;;6.20;1.40;;;10.00;99.90;;;;;;4992321;28;20058;-72
2023/03/26 13:09:58;;;;;;;7.38;1.42;;;9.90;99.90;;;;;;4994625;28;20038;-72
2023/03/26 13:12:54;;;;;;;9.35;1.98;;;9.90;99.90;;;;;;4982602;28;20046;-71
2023/03/26 13:15:28;;;;;;;8.48;1.67;;;9.90;99.90;;;;;;4992892;28;20093;-72
2023/03/26 13:18:07;;;;;;;9.57;2.78;;;9.50;99.90;;;;;;4986445;28;20054;-73
2023/03/26 13:20:42;;;;;;;6.88;1.80;;;9.50;99.90;;;;;;4981887;28;20141;-71
2023/03/26 13:23:44;;;;;;;5.80;1.35;;;9.30;99.90;;;;;;5004770;28;20046;-72
2023/03/26 13:26:39;;;;;;;10.38;1.40;;;9.30;99.90;;;;;;5007880;28;20050;-72
2023/03/26 13:29:32;;;;;;;5.88;1.50;;;9.40;99.90;;;;;;5007955;28;20042;-71
2023/03/26 13:32:08;;;;;;;8.23;1.48;;;9.60;99.90;;;;;;4985888;28;20602;-72
2023/03/26 13:34:52;;;;;;;5.47;1.70;;;9.70;99.90;;;;;;5005729;28;20045;-72
2023/03/26 13:37:38;;;;;;;8.02;1.83;;;9.70;99.90;;;;;;4974921;28;20050;-72
2023/03/26 13:40:08;;;;;;;6.97;1.45;;;9.60;99.60;;;;;;4974659;28;20065;-72
2023/03/26 13:42:45;;;;;;;6.28;1.67;;;9.50;99.90;;;;;;4997916;28;20112;-75
2023/03/26 13:45:20;;;;;;;8.23;1.38;;;9.40;99.90;;;;;;4994716;28;20137;-72